createdAt,value
2022-11-05T00:02:07.383Z,43.10
2022-11-05T00:04:55.545Z,43.10
2022-11-05T00:07:51.459Z,43.10
2022-11-05T00:10:32.342Z,43.10
2022-11-05T00:13:20.501Z,43.00
2022-11-05T00:16:08.875Z,43.00
2022-11-05T00:18:38.833Z,43.00
2022-11-05T00:21:28.570Z,43.00
2022-11-05T00:24:21.731Z,42.90
2022-11-05T00:26:54.034Z,43.00
2022-11-05T00:29:24.407Z,43.00
2022-11-05T00:31:54.380Z,42.90
2022-11-05T00:34:24.299Z,42.80
2022-11-05T00:36:54.273Z,42.80
2022-11-05T00:39:24.235Z,42.80
2022-11-05T00:42:12.315Z,42.90
2022-11-05T00:45:00.353Z,42.70
2022-11-05T00:47:48.814Z,42.70
2022-11-05T00:50:19.234Z,42.70
2022-11-05T00:53:00.585Z,42.70
2022-11-05T00:55:30.791Z,42.60
2022-11-05T00:58:01.361Z,42.50
2022-11-05T01:00:32.415Z,42.50
2022-11-05T01:03:03.662Z,42.50
2022-11-05T01:05:33.804Z,42.50
2022-11-05T01:08:03.804Z,42.30
2022-11-05T01:10:34.235Z,42.00
2022-11-05T01:13:07.562Z,41.70
2022-11-05T01:15:40.152Z,41.50
2022-11-05T01:18:10.204Z,41.30
2022-11-05T01:20:40.287Z,41.20
2022-11-05T01:23:13.498Z,41.10
2022-11-05T01:25:47.018Z,41.30
2022-11-05T01:28:17.056Z,41.30
2022-11-05T01:30:47.025Z,41.10
2022-11-05T01:33:17.042Z,41.30
2022-11-05T01:35:46.973Z,41.40
2022-11-05T01:38:19.017Z,41.40
2022-11-05T01:40:48.953Z,41.40
2022-11-05T01:43:21.047Z,41.20
2022-11-05T01:45:55.280Z,41.20
2022-11-05T01:48:34.159Z,41.20
2022-11-05T01:51:30.175Z,41.20
2022-11-05T01:54:05.116Z,41.00
2022-11-05T01:56:35.055Z,41.00
2022-11-05T01:59:13.268Z,41.00
2022-11-05T02:01:43.514Z,40.90
2022-11-05T02:04:18.548Z,41.00
2022-11-05T02:06:48.654Z,40.80
2022-11-05T02:09:42.976Z,40.80
2022-11-05T02:12:12.924Z,40.70
2022-11-05T02:14:42.859Z,40.60
2022-11-05T02:17:25.419Z,40.60
2022-11-05T02:20:13.536Z,40.50
2022-11-05T02:22:55.291Z,40.40
2022-11-05T02:25:46.746Z,40.40
2022-11-05T02:28:27.592Z,40.40
2022-11-05T02:31:10.124Z,40.30
2022-11-05T02:33:58.495Z,40.30
2022-11-05T02:36:41.232Z,40.30
2022-11-05T02:39:29.449Z,40.90
2022-11-05T02:42:28.427Z,37.70
2022-11-05T02:45:34.194Z,38.40
2022-11-05T02:48:20.346Z,34.60
2022-11-05T02:51:36.783Z,34.40
2022-11-05T02:54:19.315Z,32.60
2022-11-05T02:56:50.032Z,31.50
2022-11-05T02:59:20.001Z,30.40
2022-11-05T03:01:50.176Z,33.10
2022-11-05T03:04:23.943Z,33.60
2022-11-05T03:06:58.460Z,33.70
2022-11-05T03:09:53.623Z,33.80
2022-11-05T03:12:40.312Z,33.90
2022-11-05T03:15:26.734Z,34.20
2022-11-05T03:18:04.793Z,34.40
2022-11-05T03:20:50.158Z,34.50
2022-11-05T03:23:27.726Z,34.80
2022-11-05T03:26:18.579Z,34.80
2022-11-05T03:29:08.736Z,35.00
2022-11-05T03:31:39.275Z,35.00
2022-11-05T03:34:09.573Z,35.20
2022-11-05T03:36:44.412Z,35.30
2022-11-05T03:39:18.365Z,35.50
2022-11-05T03:41:50.382Z,35.50
2022-11-05T03:44:27.380Z,35.80
2022-11-05T03:47:05.990Z,35.70
2022-11-05T03:49:41.377Z,35.80
2022-11-05T03:52:21.800Z,36.00
2022-11-05T03:54:51.912Z,36.00
2022-11-05T03:57:27.363Z,36.60
2022-11-05T03:59:57.664Z,36.20
2022-11-05T04:02:28.415Z,36.20
2022-11-05T04:04:58.579Z,36.30
2022-11-05T04:07:46.902Z,36.50
2022-11-05T04:10:35.292Z,36.40
2022-11-05T04:13:23.979Z,36.50
2022-11-05T04:16:13.106Z,36.50
2022-11-05T04:18:43.465Z,36.60
2022-11-05T04:21:31.387Z,36.60
2022-11-05T04:24:10.333Z,36.70
2022-11-05T04:26:42.351Z,36.80
2022-11-05T04:29:30.723Z,36.70
2022-11-05T04:32:01.093Z,36.90
2022-11-05T04:34:30.999Z,36.90
2022-11-05T04:37:01.046Z,36.90
2022-11-05T04:39:31.061Z,36.90
2022-11-05T04:42:03.760Z,36.90
2022-11-05T04:44:33.938Z,37.00
2022-11-05T04:47:04.025Z,37.00
2022-11-05T04:49:33.976Z,37.00
2022-11-05T04:52:04.001Z,37.10
2022-11-05T04:54:33.915Z,37.00
2022-11-05T04:57:03.917Z,37.10
2022-11-05T04:59:33.965Z,37.00
2022-11-05T05:02:04.997Z,37.10
2022-11-05T05:04:38.042Z,37.10
2022-11-05T05:07:08.477Z,37.10
2022-11-05T05:09:39.090Z,37.10
2022-11-05T05:12:09.704Z,37.20
2022-11-05T05:14:42.521Z,37.10
2022-11-05T05:17:15.692Z,37.20
2022-11-05T05:20:04.214Z,37.30
2022-11-05T05:22:40.517Z,37.20
2022-11-05T05:25:11.001Z,37.30
2022-11-05T05:27:41.100Z,37.20
2022-11-05T05:30:11.765Z,37.30
2022-11-05T05:32:41.679Z,37.30
2022-11-05T05:35:11.923Z,37.30
2022-11-05T05:37:41.814Z,37.40
2022-11-05T05:40:12.413Z,37.30
2022-11-05T05:42:43.518Z,37.40
2022-11-05T05:45:14.263Z,37.40
2022-11-05T05:47:44.275Z,37.40
2022-11-05T05:50:14.312Z,37.40
2022-11-05T05:52:44.411Z,37.40
2022-11-05T05:55:14.489Z,37.50
2022-11-05T05:57:44.503Z,37.40
2022-11-05T06:00:15.153Z,37.40
2022-11-05T06:02:45.489Z,37.40
2022-11-05T06:05:15.700Z,37.40
2022-11-05T06:07:45.798Z,37.40
2022-11-05T06:10:15.906Z,37.40
2022-11-05T06:12:46.024Z,37.40
2022-11-05T06:15:16.084Z,37.40
2022-11-05T06:17:46.353Z,37.40
2022-11-05T06:20:16.291Z,37.40
2022-11-05T06:22:46.270Z,37.40
2022-11-05T06:25:17.058Z,37.40
2022-11-05T06:27:47.292Z,37.40
2022-11-05T06:30:18.684Z,37.40
2022-11-05T06:32:49.134Z,37.40
2022-11-05T06:35:19.211Z,37.30
2022-11-05T06:37:49.250Z,37.40
2022-11-05T06:40:19.230Z,37.20
2022-11-05T06:42:49.220Z,37.30
2022-11-05T06:45:19.166Z,37.30
2022-11-05T06:47:49.201Z,37.20
2022-11-05T06:50:19.377Z,37.30
2022-11-05T06:53:00.983Z,37.20
2022-11-05T06:55:32.106Z,37.30
2022-11-05T06:58:05.444Z,37.30
2022-11-05T07:00:35.873Z,37.30
2022-11-05T07:03:07.709Z,37.40
2022-11-05T07:05:40.443Z,37.40
2022-11-05T07:08:11.029Z,37.50
2022-11-05T07:10:41.500Z,37.40
2022-11-05T07:13:11.676Z,37.40
2022-11-05T07:15:42.240Z,37.40
2022-11-05T07:18:12.170Z,37.40
2022-11-05T07:20:42.086Z,37.40
2022-11-05T07:23:14.246Z,37.40
2022-11-05T07:25:44.772Z,37.50
2022-11-05T07:28:15.648Z,37.50
2022-11-05T07:30:45.643Z,37.50
2022-11-05T07:33:15.886Z,37.50
2022-11-05T07:35:45.808Z,37.50
2022-11-05T07:38:15.743Z,37.40
2022-11-05T07:40:45.706Z,37.50
2022-11-05T07:43:18.881Z,37.50
2022-11-05T07:45:49.126Z,37.50
2022-11-05T07:48:19.052Z,37.80
2022-11-05T07:50:50.394Z,37.50
2022-11-05T07:53:21.982Z,37.50
2022-11-05T07:55:53.730Z,37.60
2022-11-05T07:58:24.036Z,37.40
2022-11-05T08:00:54.236Z,37.60
2022-11-05T08:03:24.568Z,37.50
2022-11-05T08:05:55.229Z,37.60
2022-11-05T08:08:25.504Z,37.60
2022-11-05T08:10:55.476Z,37.60
2022-11-05T08:13:25.546Z,37.50
2022-11-05T08:15:57.542Z,37.50
2022-11-05T08:18:33.801Z,37.50
2022-11-05T08:21:05.396Z,37.60
2022-11-05T08:23:35.903Z,37.60
2022-11-05T08:26:06.416Z,37.60
2022-11-05T08:28:36.370Z,37.60
2022-11-05T08:31:06.416Z,37.70
2022-11-05T08:33:36.367Z,37.70
2022-11-05T08:36:06.913Z,37.70
2022-11-05T08:38:37.056Z,37.80
2022-11-05T08:41:07.056Z,37.70
2022-11-05T08:43:37.138Z,37.70
2022-11-05T08:46:07.389Z,37.70
2022-11-05T08:48:37.464Z,37.70
2022-11-05T08:51:07.623Z,37.70
2022-11-05T08:53:37.624Z,37.80
2022-11-05T08:56:07.955Z,37.80
2022-11-05T08:58:38.809Z,37.80
2022-11-05T09:01:08.815Z,37.80
2022-11-05T09:03:38.834Z,37.80
2022-11-05T09:06:09.204Z,37.80
2022-11-05T09:08:39.384Z,37.80
2022-11-05T09:11:09.748Z,37.90
2022-11-05T09:13:39.963Z,37.80
2022-11-05T09:16:22.954Z,37.80
2022-11-05T09:18:53.191Z,37.80
2022-11-05T09:21:23.245Z,37.80
2022-11-05T09:23:54.396Z,37.80
2022-11-05T09:26:24.920Z,37.80
2022-11-05T09:28:55.263Z,37.90
2022-11-05T09:31:25.182Z,37.80
2022-11-05T09:33:55.509Z,37.80
2022-11-05T09:36:25.451Z,37.80
2022-11-05T09:38:55.471Z,37.90
2022-11-05T09:41:28.714Z,37.90
2022-11-05T09:44:11.342Z,37.80
2022-11-05T09:46:52.754Z,37.90
2022-11-05T09:49:29.582Z,37.80
2022-11-05T09:51:59.893Z,37.90
2022-11-05T09:54:32.794Z,37.90
2022-11-05T09:57:04.559Z,37.90
2022-11-05T09:59:37.797Z,37.90
2022-11-05T10:02:30.877Z,37.90
2022-11-05T10:05:09.155Z,37.90
2022-11-05T10:08:25.349Z,38.00
2022-11-05T10:11:02.362Z,37.90
2022-11-05T10:13:54.389Z,37.80
2022-11-05T10:16:28.917Z,37.90
2022-11-05T10:19:14.187Z,37.80
2022-11-05T10:22:05.530Z,37.80
2022-11-05T10:24:34.177Z,37.80
2022-11-05T10:27:04.376Z,37.80
2022-11-05T10:29:35.924Z,37.80
2022-11-05T10:32:06.885Z,37.80
2022-11-05T10:34:38.364Z,37.80
2022-11-05T10:37:08.432Z,37.80
2022-11-05T10:39:38.594Z,37.80
2022-11-05T10:42:53.199Z,37.80
2022-11-05T10:45:28.164Z,37.80
2022-11-05T10:48:25.853Z,37.80
2022-11-05T10:50:55.810Z,37.80
2022-11-05T10:53:36.376Z,37.80
2022-11-05T10:56:06.705Z,37.80
2022-11-05T10:58:38.338Z,37.80
2022-11-05T11:01:13.303Z,37.80
2022-11-05T11:03:52.668Z,37.80
2022-11-05T11:06:25.815Z,37.80
2022-11-05T11:09:06.747Z,37.80
2022-11-05T11:11:41.632Z,37.80
2022-11-05T11:14:14.705Z,37.80
2022-11-05T11:16:48.651Z,37.80
2022-11-05T11:19:31.886Z,38.30
2022-11-05T11:22:07.770Z,37.80
2022-11-05T11:24:43.490Z,37.80
2022-11-05T11:27:21.461Z,37.80
2022-11-05T11:30:02.016Z,37.80
2022-11-05T11:32:39.421Z,37.80
2022-11-05T11:35:19.391Z,37.80
2022-11-05T11:37:49.329Z,37.80
2022-11-05T11:40:31.109Z,37.80
2022-11-05T11:43:04.937Z,37.80
2022-11-05T11:45:37.334Z,37.70
2022-11-05T11:48:08.367Z,37.80
2022-11-05T11:50:45.752Z,37.70
2022-11-05T11:53:35.272Z,37.80
2022-11-05T11:56:06.964Z,37.70
2022-11-05T11:58:43.056Z,37.80
2022-11-05T12:01:23.086Z,37.70
2022-11-05T12:04:22.094Z,37.70
2022-11-05T12:07:10.612Z,37.60
2022-11-05T12:10:05.582Z,37.70
2022-11-05T12:12:50.502Z,37.70
2022-11-05T12:15:29.636Z,37.60
2022-11-05T12:18:07.225Z,37.60
2022-11-05T12:20:58.413Z,37.70
2022-11-05T12:23:43.886Z,37.60
2022-11-05T12:26:46.552Z,37.70
2022-11-05T12:29:35.908Z,37.60
2022-11-05T12:32:33.778Z,37.60
2022-11-05T12:35:31.224Z,37.60
2022-11-05T12:38:22.780Z,37.60
2022-11-05T12:40:55.697Z,37.70
2022-11-05T12:43:32.270Z,37.60
2022-11-05T12:46:23.028Z,37.60
2022-11-05T12:49:38.279Z,37.50
2022-11-05T12:52:23.551Z,37.60
2022-11-05T12:55:00.463Z,37.60
2022-11-05T12:57:31.563Z,37.50
2022-11-05T13:00:11.774Z,37.60
2022-11-05T13:03:04.710Z,37.60
2022-11-05T13:05:42.484Z,37.60
2022-11-05T13:08:14.004Z,37.50
2022-11-05T13:11:01.123Z,37.50
2022-11-05T13:13:41.389Z,37.60
2022-11-05T13:16:15.676Z,37.50
2022-11-05T13:19:00.047Z,37.60
2022-11-05T13:21:30.715Z,37.60
2022-11-05T13:24:05.865Z,37.50
2022-11-05T13:26:45.200Z,37.50
2022-11-05T13:29:45.660Z,37.50
2022-11-05T13:32:41.611Z,37.50
2022-11-05T13:35:25.043Z,37.50
2022-11-05T13:38:15.947Z,37.50
2022-11-05T13:41:21.030Z,37.50
2022-11-05T13:44:28.754Z,37.50
2022-11-05T13:47:23.429Z,37.50
2022-11-05T13:50:14.939Z,37.50
2022-11-05T13:52:51.540Z,37.40
2022-11-05T13:55:33.572Z,37.40
2022-11-05T13:58:18.917Z,37.40
2022-11-05T14:01:16.034Z,37.50
2022-11-05T14:03:52.920Z,37.40
2022-11-05T14:06:28.385Z,37.40
2022-11-05T14:09:02.774Z,37.40
2022-11-05T14:11:37.877Z,37.50
2022-11-05T14:14:10.434Z,37.30
2022-11-05T14:17:12.520Z,37.50
2022-11-05T14:20:07.780Z,37.30
2022-11-05T14:22:40.332Z,37.30
2022-11-05T14:25:22.239Z,37.90
2022-11-05T14:27:53.764Z,37.30
2022-11-05T14:30:48.942Z,37.40
2022-11-05T14:33:42.051Z,37.40
2022-11-05T14:36:24.259Z,37.30
2022-11-05T14:38:57.805Z,37.30
2022-11-05T14:41:31.367Z,37.30
2022-11-05T14:44:03.053Z,37.30
2022-11-05T14:46:49.894Z,37.30
2022-11-05T14:49:31.180Z,37.20
2022-11-05T14:52:02.365Z,37.20
2022-11-05T14:54:53.071Z,37.30
2022-11-05T14:57:44.335Z,37.20
2022-11-05T15:00:33.588Z,37.20
2022-11-05T15:03:24.124Z,37.20
2022-11-05T15:05:54.622Z,37.20
2022-11-05T15:08:50.173Z,37.80
2022-11-05T15:11:55.497Z,37.20
2022-11-05T15:15:01.582Z,37.20
2022-11-05T15:17:35.823Z,37.20
2022-11-05T15:20:15.341Z,37.20
2022-11-05T15:22:46.711Z,37.20
2022-11-05T15:25:24.900Z,37.20
2022-11-05T15:28:08.112Z,37.20
2022-11-05T15:30:38.228Z,37.20
2022-11-05T15:33:22.381Z,37.20
2022-11-05T15:35:52.353Z,37.20
2022-11-05T15:38:31.172Z,37.20
2022-11-05T15:41:21.866Z,37.20
2022-11-05T15:43:52.983Z,37.10
2022-11-05T15:46:29.371Z,37.10
2022-11-05T15:49:00.255Z,37.20
2022-11-05T15:51:30.247Z,37.20
2022-11-05T15:54:28.538Z,37.20
2022-11-05T15:56:54.361Z,37.10
2022-11-05T15:59:28.625Z,37.10
2022-11-05T16:02:23.785Z,37.20
2022-11-05T16:04:53.895Z,37.10
2022-11-05T16:07:24.047Z,37.00
2022-11-05T16:10:06.189Z,37.10
2022-11-05T16:12:40.086Z,37.00
2022-11-05T16:15:13.335Z,37.00
2022-11-05T16:17:51.614Z,37.10
2022-11-05T16:20:30.117Z,37.00
2022-11-05T16:23:08.283Z,37.10
2022-11-05T16:25:45.253Z,37.00
2022-11-05T16:28:41.535Z,37.00
2022-11-05T16:31:11.718Z,37.00
2022-11-05T16:33:47.267Z,37.00
2022-11-05T16:36:19.772Z,37.50
2022-11-05T16:38:50.213Z,37.00
2022-11-05T16:41:22.427Z,37.00
2022-11-05T16:43:59.915Z,36.90
2022-11-05T16:46:30.992Z,37.00
2022-11-05T16:49:00.930Z,36.90
2022-11-05T16:51:31.065Z,37.00
2022-11-05T16:54:01.110Z,37.00
2022-11-05T16:56:32.034Z,36.90
2022-11-05T16:59:02.120Z,36.90
2022-11-05T17:01:32.444Z,36.80
2022-11-05T17:04:02.531Z,36.90
2022-11-05T17:06:32.536Z,36.80
2022-11-05T17:09:02.572Z,36.80
2022-11-05T17:11:32.635Z,36.80
2022-11-05T17:14:02.651Z,36.80
2022-11-05T17:16:33.476Z,36.90
2022-11-05T17:19:03.674Z,36.80
2022-11-05T17:21:33.667Z,36.80
2022-11-05T17:24:03.767Z,36.80
2022-11-05T17:26:33.784Z,37.40
2022-11-05T17:29:03.771Z,36.80
2022-11-05T17:31:33.671Z,36.80
2022-11-05T17:34:03.585Z,36.80
2022-11-05T17:36:33.595Z,36.80
2022-11-05T17:39:03.547Z,36.70
2022-11-05T17:41:33.630Z,36.80
2022-11-05T17:44:03.714Z,36.80
2022-11-05T17:46:33.666Z,36.70
2022-11-05T17:49:03.641Z,36.70
2022-11-05T17:51:35.394Z,36.70
2022-11-05T17:54:05.513Z,36.70
2022-11-05T17:56:43.280Z,36.70
2022-11-05T17:59:14.339Z,36.70
2022-11-05T18:01:46.062Z,36.70
2022-11-05T18:04:16.243Z,36.70
2022-11-05T18:06:46.257Z,36.80
2022-11-05T18:09:16.286Z,36.70
2022-11-05T18:11:46.338Z,36.70
2022-11-05T18:14:21.329Z,36.70
2022-11-05T18:16:56.354Z,36.70
2022-11-05T18:19:26.298Z,36.60
2022-11-05T18:21:56.927Z,36.60
2022-11-05T18:24:26.905Z,36.60
2022-11-05T18:26:56.863Z,36.60
2022-11-05T18:29:26.757Z,36.60
2022-11-05T18:31:56.762Z,36.60
2022-11-05T18:34:26.685Z,36.60
2022-11-05T18:36:56.801Z,36.50
2022-11-05T18:39:26.981Z,36.60
2022-11-05T18:41:56.960Z,36.60
2022-11-05T18:44:27.032Z,36.60
2022-11-05T18:46:58.500Z,36.60
2022-11-05T18:49:29.139Z,36.50
2022-11-05T18:51:59.175Z,36.50
2022-11-05T18:54:29.272Z,36.50
2022-11-05T18:56:59.314Z,36.50
2022-11-05T18:59:39.214Z,36.50
2022-11-05T19:02:10.471Z,36.50
2022-11-05T19:04:50.506Z,36.50
2022-11-05T19:07:25.507Z,36.40
2022-11-05T19:09:58.218Z,36.50
2022-11-05T19:12:28.431Z,36.40
2022-11-05T19:15:02.337Z,36.40
2022-11-05T19:17:34.221Z,36.50
2022-11-05T19:20:04.502Z,36.50
2022-11-05T19:22:34.624Z,36.40
2022-11-05T19:25:05.303Z,36.40
2022-11-05T19:27:37.408Z,36.40
2022-11-05T19:30:08.221Z,36.50
2022-11-05T19:32:39.127Z,36.40
2022-11-05T19:35:09.838Z,36.40
2022-11-05T19:37:40.126Z,36.40
2022-11-05T19:40:11.048Z,36.60
2022-11-05T19:42:40.988Z,36.40
2022-11-05T19:45:38.471Z,36.30
2022-11-05T19:48:02.500Z,36.40
2022-11-05T19:50:32.953Z,36.40
2022-11-05T19:53:03.598Z,36.30
2022-11-05T19:55:33.595Z,36.30
2022-11-05T19:58:03.620Z,36.30
2022-11-05T20:00:33.609Z,36.30
2022-11-05T20:03:04.189Z,36.30
2022-11-05T20:05:35.637Z,36.40
2022-11-05T20:08:05.933Z,36.30
2022-11-05T20:10:39.091Z,36.20
2022-11-05T20:13:09.379Z,36.30
2022-11-05T20:15:40.713Z,36.20
2022-11-05T20:18:11.913Z,36.20
2022-11-05T20:20:43.009Z,36.30
2022-11-05T20:23:13.667Z,36.20
2022-11-05T20:25:43.992Z,36.20
2022-11-05T20:28:14.253Z,36.20
2022-11-05T20:30:44.851Z,36.20
2022-11-05T20:33:15.271Z,36.20
2022-11-05T20:35:45.283Z,36.20
2022-11-05T20:38:15.521Z,36.20
2022-11-05T20:40:45.550Z,36.10
2022-11-05T20:43:15.626Z,36.10
2022-11-05T20:45:45.520Z,36.20
2022-11-05T20:48:15.721Z,36.60
2022-11-05T20:50:46.173Z,36.10
2022-11-05T20:53:16.078Z,36.10
2022-11-05T20:55:47.085Z,36.00
2022-11-05T20:58:18.217Z,36.10
2022-11-05T21:00:57.211Z,36.10
2022-11-05T21:03:28.388Z,36.00
2022-11-05T21:06:01.103Z,36.00
2022-11-05T21:08:31.217Z,36.00
2022-11-05T21:11:01.914Z,36.00
2022-11-05T21:13:32.325Z,36.00
2022-11-05T21:16:02.590Z,36.00
2022-11-05T21:18:33.672Z,36.00
2022-11-05T21:21:09.048Z,36.00
2022-11-05T21:23:39.303Z,36.00
2022-11-05T21:26:10.484Z,36.00
2022-11-05T21:28:41.317Z,36.00
2022-11-05T21:31:12.504Z,36.00
2022-11-05T21:33:43.046Z,36.00
2022-11-05T21:36:14.344Z,35.90
2022-11-05T21:38:44.498Z,36.00
2022-11-05T21:41:15.098Z,36.00
2022-11-05T21:43:45.876Z,35.90
2022-11-05T21:46:16.229Z,36.00
2022-11-05T21:48:46.498Z,35.90
2022-11-05T21:51:35.624Z,35.90
2022-11-05T21:54:24.184Z,35.90
2022-11-05T21:57:12.591Z,35.90
2022-11-05T21:59:56.294Z,35.90
2022-11-05T22:02:26.363Z,35.90
2022-11-05T22:04:58.367Z,36.40
2022-11-05T22:07:30.978Z,35.90
2022-11-05T22:10:01.400Z,36.40
2022-11-05T22:12:32.460Z,35.90
2022-11-05T22:15:03.220Z,35.80
2022-11-05T22:17:33.913Z,35.90
2022-11-05T22:20:04.279Z,35.90
2022-11-05T22:22:35.227Z,35.80
2022-11-05T22:25:06.218Z,35.80
2022-11-05T22:27:36.268Z,35.80
2022-11-05T22:30:06.624Z,35.70
2022-11-05T22:32:36.608Z,35.80
2022-11-05T22:35:06.971Z,35.80
2022-11-05T22:37:37.386Z,35.70
2022-11-05T22:40:07.847Z,35.80
2022-11-05T22:42:38.821Z,35.80
2022-11-05T22:45:09.527Z,35.80
2022-11-05T22:47:39.788Z,35.80
2022-11-05T22:50:10.190Z,35.70
2022-11-05T22:52:40.967Z,35.80
2022-11-05T22:55:11.245Z,35.80
2022-11-05T22:57:41.277Z,35.80
2022-11-05T23:00:15.808Z,35.80
2022-11-05T23:02:47.206Z,35.80
2022-11-05T23:05:17.472Z,35.80
2022-11-05T23:08:05.450Z,35.80
2022-11-05T23:10:53.755Z,35.80
2022-11-05T23:13:24.727Z,35.70
2022-11-05T23:16:12.674Z,35.70
2022-11-05T23:19:01.624Z,35.70
2022-11-05T23:21:49.663Z,35.60
2022-11-05T23:24:20.802Z,35.70
2022-11-05T23:26:54.910Z,35.60
2022-11-05T23:29:26.371Z,35.70
2022-11-05T23:32:19.303Z,35.60
2022-11-05T23:34:49.384Z,35.60
2022-11-05T23:37:37.676Z,35.60
2022-11-05T23:40:10.266Z,35.60
2022-11-05T23:42:58.331Z,35.60
2022-11-05T23:45:46.507Z,35.50
2022-11-05T23:48:20.295Z,35.50
2022-11-05T23:50:55.109Z,35.60
2022-11-05T23:53:25.550Z,35.60
2022-11-05T23:56:00.125Z,35.60
2022-11-05T23:58:30.440Z,35.50
